sensor_id;sensor_type;location;lat;lon;timestamp;P1;durP1;ratioP1;P2;durP2;ratioP2
39656;SDS011;25337;51.478;7.510;2022-09-13T00:00:04;6.68;;;3.05;;
39656;SDS011;25337;51.478;7.510;2022-09-13T00:02:31;7.22;;;3.22;;
39656;SDS011;25337;51.478;7.510;2022-09-13T00:04:56;8.10;;;3.08;;
39656;SDS011;25337;51.478;7.510;2022-09-13T00:07:22;6.80;;;3.13;;
39656;SDS011;25337;51.478;7.510;2022-09-13T00:09:48;7.07;;;3.05;;
39656;SDS011;25337;51.478;7.510;2022-09-13T00:12:13;7.47;;;3.17;;
39656;SDS011;25337;51.478;7.510;2022-09-13T00:14:39;7.63;;;3.05;;
39656;SDS011;25337;51.478;7.510;2022-09-13T00:17:05;6.47;;;2.88;;
39656;SDS011;25337;51.478;7.510;2022-09-13T00:19:31;6.95;;;2.63;;
39656;SDS011;25337;51.478;7.510;2022-09-13T00:21:57;16.23;;;3.70;;
39656;SDS011;25337;51.478;7.510;2022-09-13T00:24:22;6.97;;;3.03;;
39656;SDS011;25337;51.478;7.510;2022-09-13T00:26:48;6.90;;;3.00;;
39656;SDS011;25337;51.478;7.510;2022-09-13T00:29:14;6.85;;;3.08;;
39656;SDS011;25337;51.478;7.510;2022-09-13T00:31:39;6.97;;;3.08;;
39656;SDS011;25337;51.478;7.510;2022-09-13T00:34:05;9.77;;;2.97;;
39656;SDS011;25337;51.478;7.510;2022-09-13T00:36:31;6.97;;;3.10;;
39656;SDS011;25337;51.478;7.510;2022-09-13T00:38:58;6.13;;;2.83;;
39656;SDS011;25337;51.478;7.510;2022-09-13T00:41:24;6.53;;;2.60;;
39656;SDS011;25337;51.478;7.510;2022-09-13T00:46:34;7.93;;;3.13;;
39656;SDS011;25337;51.478;7.510;2022-09-13T00:49:13;8.07;;;3.10;;
39656;SDS011;25337;51.478;7.510;2022-09-13T00:51:41;8.55;;;3.00;;
39656;SDS011;25337;51.478;7.510;2022-09-13T00:54:10;7.45;;;2.80;;
39656;SDS011;25337;51.478;7.510;2022-09-13T00:56:42;6.97;;;3.00;;
39656;SDS011;25337;51.478;7.510;2022-09-13T00:59:14;6.70;;;2.88;;
39656;SDS011;25337;51.478;7.510;2022-09-13T01:01:46;6.72;;;2.80;;
39656;SDS011;25337;51.478;7.510;2022-09-13T01:04:13;6.87;;;2.87;;
39656;SDS011;25337;51.478;7.510;2022-09-13T01:06:40;7.35;;;3.05;;
39656;SDS011;25337;51.478;7.510;2022-09-13T01:09:07;6.55;;;2.63;;
39656;SDS011;25337;51.478;7.510;2022-09-13T01:11:46;9.63;;;2.78;;
39656;SDS011;25337;51.478;7.510;2022-09-13T01:14:15;6.60;;;2.85;;
39656;SDS011;25337;51.478;7.510;2022-09-13T01:16:45;5.70;;;2.45;;
39656;SDS011;25337;51.478;7.510;2022-09-13T01:19:11;6.82;;;2.70;;
39656;SDS011;25337;51.478;7.510;2022-09-13T01:43:56;5.63;;;2.33;;
39656;SDS011;25337;51.478;7.510;2022-09-13T01:49:25;8.25;;;2.50;;
39656;SDS011;25337;51.478;7.510;2022-09-13T01:52:07;6.97;;;2.47;;
39656;SDS011;25337;51.478;7.510;2022-09-13T01:57:48;6.82;;;2.40;;
39656;SDS011;25337;51.478;7.510;2022-09-13T02:00:22;6.50;;;2.40;;
39656;SDS011;25337;51.478;7.510;2022-09-13T02:02:52;8.18;;;2.50;;
39656;SDS011;25337;51.478;7.510;2022-09-13T02:08:10;6.57;;;2.50;;
39656;SDS011;25337;51.478;7.510;2022-09-13T02:10:46;6.07;;;2.10;;
39656;SDS011;25337;51.478;7.510;2022-09-13T02:13:20;6.65;;;2.50;;
39656;SDS011;25337;51.478;7.510;2022-09-13T02:15:54;7.00;;;2.42;;
39656;SDS011;25337;51.478;7.510;2022-09-13T02:18:25;8.98;;;2.63;;
39656;SDS011;25337;51.478;7.510;2022-09-13T02:21:00;5.85;;;2.15;;
39656;SDS011;25337;51.478;7.510;2022-09-13T02:23:33;6.22;;;2.50;;
39656;SDS011;25337;51.478;7.510;2022-09-13T02:26:07;6.43;;;2.70;;
39656;SDS011;25337;51.478;7.510;2022-09-13T02:28:37;6.77;;;2.80;;
39656;SDS011;25337;51.478;7.510;2022-09-13T02:31:09;6.40;;;2.60;;
39656;SDS011;25337;51.478;7.510;2022-09-13T02:33:38;6.80;;;2.58;;
39656;SDS011;25337;51.478;7.510;2022-09-13T02:36:13;5.57;;;2.50;;
39656;SDS011;25337;51.478;7.510;2022-09-13T02:43:49;5.80;;;2.30;;
39656;SDS011;25337;51.478;7.510;2022-09-13T02:46:34;5.90;;;2.30;;
39656;SDS011;25337;51.478;7.510;2022-09-13T02:54:45;6.18;;;2.28;;
39656;SDS011;25337;51.478;7.510;2022-09-13T02:57:25;6.25;;;2.42;;
39656;SDS011;25337;51.478;7.510;2022-09-13T03:00:25;6.50;;;2.28;;
39656;SDS011;25337;51.478;7.510;2022-09-13T03:02:52;7.72;;;2.50;;
39656;SDS011;25337;51.478;7.510;2022-09-13T03:05:20;9.50;;;2.65;;
39656;SDS011;25337;51.478;7.510;2022-09-13T03:07:46;6.72;;;2.33;;
39656;SDS011;25337;51.478;7.510;2022-09-13T03:10:13;7.78;;;2.45;;
39656;SDS011;25337;51.478;7.510;2022-09-13T03:24:21;7.63;;;2.55;;
39656;SDS011;25337;51.478;7.510;2022-09-13T03:30:02;6.15;;;2.28;;
39656;SDS011;25337;51.478;7.510;2022-09-13T03:35:36;5.68;;;2.63;;
39656;SDS011;25337;51.478;7.510;2022-09-13T03:38:12;7.72;;;2.70;;
39656;SDS011;25337;51.478;7.510;2022-09-13T03:40:46;5.70;;;2.45;;
39656;SDS011;25337;51.478;7.510;2022-09-13T03:45:54;7.63;;;2.45;;
39656;SDS011;25337;51.478;7.510;2022-09-13T03:48:23;5.63;;;2.35;;
39656;SDS011;25337;51.478;7.510;2022-09-13T03:50:51;6.00;;;2.40;;
39656;SDS011;25337;51.478;7.510;2022-09-13T03:53:22;6.35;;;2.40;;
39656;SDS011;25337;51.478;7.510;2022-09-13T03:55:51;7.18;;;2.50;;
39656;SDS011;25337;51.478;7.510;2022-09-13T03:58:19;5.45;;;2.33;;
39656;SDS011;25337;51.478;7.510;2022-09-13T04:00:45;8.15;;;2.45;;
39656;SDS011;25337;51.478;7.510;2022-09-13T04:03:12;6.47;;;2.60;;
39656;SDS011;25337;51.478;7.510;2022-09-13T04:05:38;7.07;;;2.40;;
39656;SDS011;25337;51.478;7.510;2022-09-13T04:08:04;5.50;;;2.20;;
39656;SDS011;25337;51.478;7.510;2022-09-13T04:10:31;6.30;;;2.45;;
39656;SDS011;25337;51.478;7.510;2022-09-13T04:12:57;6.88;;;2.90;;
39656;SDS011;25337;51.478;7.510;2022-09-13T04:15:27;6.50;;;2.50;;
39656;SDS011;25337;51.478;7.510;2022-09-13T04:17:54;7.00;;;2.65;;
39656;SDS011;25337;51.478;7.510;2022-09-13T04:20:20;6.82;;;2.75;;
39656;SDS011;25337;51.478;7.510;2022-09-13T04:22:52;6.55;;;2.65;;
39656;SDS011;25337;51.478;7.510;2022-09-13T04:25:19;6.55;;;2.50;;
39656;SDS011;25337;51.478;7.510;2022-09-13T04:27:46;7.15;;;2.42;;
39656;SDS011;25337;51.478;7.510;2022-09-13T04:30:13;6.20;;;2.35;;
39656;SDS011;25337;51.478;7.510;2022-09-13T04:32:41;5.70;;;2.40;;
39656;SDS011;25337;51.478;7.510;2022-09-13T04:35:07;7.78;;;2.50;;
39656;SDS011;25337;51.478;7.510;2022-09-13T04:37:33;5.55;;;2.50;;
39656;SDS011;25337;51.478;7.510;2022-09-13T04:39:59;6.63;;;2.78;;
39656;SDS011;25337;51.478;7.510;2022-09-13T04:42:24;7.60;;;2.30;;
39656;SDS011;25337;51.478;7.510;2022-09-13T04:44:50;5.90;;;2.25;;
39656;SDS011;25337;51.478;7.510;2022-09-13T04:47:16;5.93;;;2.40;;
39656;SDS011;25337;51.478;7.510;2022-09-13T04:49:41;7.60;;;2.22;;
39656;SDS011;25337;51.478;7.510;2022-09-13T04:52:07;6.50;;;2.10;;
39656;SDS011;25337;51.478;7.510;2022-09-13T04:54:33;6.78;;;2.40;;
39656;SDS011;25337;51.478;7.510;2022-09-13T04:56:58;5.25;;;2.13;;
39656;SDS011;25337;51.478;7.510;2022-09-13T04:59:24;6.18;;;2.30;;
39656;SDS011;25337;51.478;7.510;2022-09-13T05:01:49;7.63;;;2.20;;
39656;SDS011;25337;51.478;7.510;2022-09-13T05:04:15;5.10;;;2.03;;
39656;SDS011;25337;51.478;7.510;2022-09-13T05:06:41;5.82;;;2.45;;
39656;SDS011;25337;51.478;7.510;2022-09-13T05:09:09;7.43;;;2.70;;
39656;SDS011;25337;51.478;7.510;2022-09-13T05:11:37;5.03;;;2.10;;
39656;SDS011;25337;51.478;7.510;2022-09-13T05:14:03;7.63;;;2.50;;
39656;SDS011;25337;51.478;7.510;2022-09-13T05:16:30;7.72;;;2.65;;
39656;SDS011;25337;51.478;7.510;2022-09-13T05:18:56;5.68;;;2.10;;
39656;SDS011;25337;51.478;7.510;2022-09-13T05:21:22;9.57;;;2.60;;
39656;SDS011;25337;51.478;7.510;2022-09-13T05:23:49;6.10;;;2.47;;
39656;SDS011;25337;51.478;7.510;2022-09-13T05:26:15;6.43;;;2.38;;
39656;SDS011;25337;51.478;7.510;2022-09-13T05:28:42;5.68;;;2.40;;
39656;SDS011;25337;51.478;7.510;2022-09-13T05:31:17;6.32;;;2.20;;
39656;SDS011;25337;51.478;7.510;2022-09-13T05:33:46;6.57;;;2.10;;
39656;SDS011;25337;51.478;7.510;2022-09-13T05:36:16;5.47;;;2.10;;
39656;SDS011;25337;51.478;7.510;2022-09-13T05:38:42;5.43;;;2.17;;
39656;SDS011;25337;51.478;7.510;2022-09-13T05:41:08;8.10;;;2.67;;
39656;SDS011;25337;51.478;7.510;2022-09-13T05:43:34;6.00;;;2.30;;
39656;SDS011;25337;51.478;7.510;2022-09-13T05:48:26;7.47;;;2.22;;
39656;SDS011;25337;51.478;7.510;2022-09-13T05:50:53;6.82;;;2.20;;
39656;SDS011;25337;51.478;7.510;2022-09-13T05:53:18;5.70;;;2.17;;
39656;SDS011;25337;51.478;7.510;2022-09-13T05:55:44;6.68;;;2.20;;
39656;SDS011;25337;51.478;7.510;2022-09-13T05:58:10;5.80;;;2.10;;
39656;SDS011;25337;51.478;7.510;2022-09-13T06:00:35;6.85;;;2.28;;
39656;SDS011;25337;51.478;7.510;2022-09-13T06:03:01;7.10;;;2.40;;
39656;SDS011;25337;51.478;7.510;2022-09-13T06:05:27;6.45;;;2.38;;
39656;SDS011;25337;51.478;7.510;2022-09-13T06:07:53;5.40;;;2.10;;
39656;SDS011;25337;51.478;7.510;2022-09-13T06:10:19;6.82;;;2.30;;
39656;SDS011;25337;51.478;7.510;2022-09-13T06:12:45;6.53;;;2.40;;
39656;SDS011;25337;51.478;7.510;2022-09-13T06:15:11;5.82;;;2.45;;
39656;SDS011;25337;51.478;7.510;2022-09-13T06:17:37;6.45;;;2.28;;
39656;SDS011;25337;51.478;7.510;2022-09-13T06:20:03;5.18;;;2.05;;
39656;SDS011;25337;51.478;7.510;2022-09-13T06:22:29;8.85;;;2.22;;
39656;SDS011;25337;51.478;7.510;2022-09-13T06:24:57;8.63;;;2.70;;
39656;SDS011;25337;51.478;7.510;2022-09-13T06:27:23;6.93;;;2.25;;
39656;SDS011;25337;51.478;7.510;2022-09-13T06:29:49;8.18;;;2.20;;
39656;SDS011;25337;51.478;7.510;2022-09-13T06:32:15;7.32;;;2.25;;
39656;SDS011;25337;51.478;7.510;2022-09-13T06:34:41;4.95;;;2.03;;
39656;SDS011;25337;51.478;7.510;2022-09-13T06:37:06;6.97;;;2.60;;
39656;SDS011;25337;51.478;7.510;2022-09-13T06:39:32;6.18;;;2.03;;
39656;SDS011;25337;51.478;7.510;2022-09-13T06:41:58;7.47;;;2.47;;
39656;SDS011;25337;51.478;7.510;2022-09-13T06:44:24;5.93;;;2.20;;
39656;SDS011;25337;51.478;7.510;2022-09-13T06:46:50;7.88;;;2.40;;
39656;SDS011;25337;51.478;7.510;2022-09-13T06:49:16;6.38;;;2.13;;
39656;SDS011;25337;51.478;7.510;2022-09-13T06:51:41;6.07;;;2.25;;
39656;SDS011;25337;51.478;7.510;2022-09-13T06:54:07;7.38;;;2.40;;
39656;SDS011;25337;51.478;7.510;2022-09-13T06:56:34;6.47;;;2.42;;
39656;SDS011;25337;51.478;7.510;2022-09-13T06:59:02;8.13;;;2.38;;
39656;SDS011;25337;51.478;7.510;2022-09-13T07:01:30;6.47;;;2.28;;
39656;SDS011;25337;51.478;7.510;2022-09-13T07:04:03;5.43;;;2.28;;
39656;SDS011;25337;51.478;7.510;2022-09-13T07:06:35;6.28;;;2.42;;
39656;SDS011;25337;51.478;7.510;2022-09-13T07:09:02;6.63;;;2.53;;
39656;SDS011;25337;51.478;7.510;2022-09-13T07:11:34;6.00;;;2.40;;
39656;SDS011;25337;51.478;7.510;2022-09-13T07:14:01;6.13;;;2.58;;
39656;SDS011;25337;51.478;7.510;2022-09-13T07:16:28;5.45;;;2.10;;
39656;SDS011;25337;51.478;7.510;2022-09-13T07:18:56;7.38;;;2.40;;
39656;SDS011;25337;51.478;7.510;2022-09-13T07:21:24;6.50;;;2.35;;
39656;SDS011;25337;51.478;7.510;2022-09-13T07:23:51;8.60;;;2.30;;
39656;SDS011;25337;51.478;7.510;2022-09-13T07:26:18;6.55;;;2.10;;
39656;SDS011;25337;51.478;7.510;2022-09-13T07:28:44;6.95;;;2.20;;
39656;SDS011;25337;51.478;7.510;2022-09-13T07:31:19;7.28;;;2.10;;
39656;SDS011;25337;51.478;7.510;2022-09-13T07:33:47;7.13;;;2.25;;
39656;SDS011;25337;51.478;7.510;2022-09-13T07:36:18;9.52;;;2.88;;
39656;SDS011;25337;51.478;7.510;2022-09-13T07:38:44;7.05;;;2.30;;
39656;SDS011;25337;51.478;7.510;2022-09-13T07:41:16;5.88;;;2.20;;
39656;SDS011;25337;51.478;7.510;2022-09-13T07:43:44;7.03;;;2.40;;
39656;SDS011;25337;51.478;7.510;2022-09-13T07:46:10;7.13;;;2.42;;
39656;SDS011;25337;51.478;7.510;2022-09-13T07:48:41;8.13;;;2.53;;
39656;SDS011;25337;51.478;7.510;2022-09-13T07:53:35;6.75;;;2.30;;
39656;SDS011;25337;51.478;7.510;2022-09-13T07:56:02;6.38;;;2.42;;
39656;SDS011;25337;51.478;7.510;2022-09-13T07:58:29;5.72;;;2.33;;
39656;SDS011;25337;51.478;7.510;2022-09-13T08:00:58;8.88;;;2.15;;
39656;SDS011;25337;51.478;7.510;2022-09-13T08:03:33;8.07;;;2.28;;
39656;SDS011;25337;51.478;7.510;2022-09-13T08:05:59;8.32;;;2.20;;
39656;SDS011;25337;51.478;7.510;2022-09-13T08:08:26;9.07;;;2.38;;
39656;SDS011;25337;51.478;7.510;2022-09-13T08:10:52;9.63;;;2.30;;
39656;SDS011;25337;51.478;7.510;2022-09-13T08:13:18;5.72;;;2.33;;
39656;SDS011;25337;51.478;7.510;2022-09-13T08:15:43;7.72;;;2.47;;
39656;SDS011;25337;51.478;7.510;2022-09-13T08:18:09;6.53;;;2.40;;
39656;SDS011;25337;51.478;7.510;2022-09-13T08:20:35;5.93;;;2.35;;
39656;SDS011;25337;51.478;7.510;2022-09-13T08:23:02;7.15;;;2.40;;
39656;SDS011;25337;51.478;7.510;2022-09-13T08:25:31;6.00;;;2.40;;
39656;SDS011;25337;51.478;7.510;2022-09-13T08:27:58;5.70;;;2.35;;
39656;SDS011;25337;51.478;7.510;2022-09-13T08:30:25;6.18;;;2.40;;
39656;SDS011;25337;51.478;7.510;2022-09-13T08:32:57;9.38;;;2.35;;
39656;SDS011;25337;51.478;7.510;2022-09-13T08:35:26;9.45;;;2.45;;
39656;SDS011;25337;51.478;7.510;2022-09-13T08:37:52;7.93;;;2.22;;
39656;SDS011;25337;51.478;7.510;2022-09-13T08:40:18;8.98;;;2.60;;
39656;SDS011;25337;51.478;7.510;2022-09-13T08:45:26;8.82;;;2.58;;
39656;SDS011;25337;51.478;7.510;2022-09-13T08:47:56;9.93;;;2.55;;
39656;SDS011;25337;51.478;7.510;2022-09-13T08:50:32;8.57;;;2.65;;
39656;SDS011;25337;51.478;7.510;2022-09-13T08:53:01;7.40;;;3.17;;
39656;SDS011;25337;51.478;7.510;2022-09-13T08:58:32;7.90;;;3.10;;
39656;SDS011;25337;51.478;7.510;2022-09-13T09:06:50;9.82;;;3.00;;
39656;SDS011;25337;51.478;7.510;2022-09-13T09:12:38;7.93;;;2.85;;
39656;SDS011;25337;51.478;7.510;2022-09-13T09:15:28;8.98;;;3.40;;
39656;SDS011;25337;51.478;7.510;2022-09-13T09:18:17;9.50;;;2.60;;
39656;SDS011;25337;51.478;7.510;2022-09-13T09:20:50;8.68;;;3.17;;
39656;SDS011;25337;51.478;7.510;2022-09-13T09:23:43;8.40;;;3.08;;
39656;SDS011;25337;51.478;7.510;2022-09-13T09:26:20;10.63;;;3.30;;
39656;SDS011;25337;51.478;7.510;2022-09-13T09:29:00;11.23;;;3.60;;
39656;SDS011;25337;51.478;7.510;2022-09-13T09:31:42;11.10;;;3.75;;
39656;SDS011;25337;51.478;7.510;2022-09-13T09:34:24;9.10;;;3.00;;
39656;SDS011;25337;51.478;7.510;2022-09-13T09:37:13;12.82;;;3.25;;
39656;SDS011;25337;51.478;7.510;2022-09-13T09:39:45;8.73;;;3.35;;
39656;SDS011;25337;51.478;7.510;2022-09-13T09:42:13;9.77;;;3.63;;
39656;SDS011;25337;51.478;7.510;2022-09-13T09:44:50;10.27;;;3.30;;
39656;SDS011;25337;51.478;7.510;2022-09-13T09:47:21;7.88;;;3.05;;
39656;SDS011;25337;51.478;7.510;2022-09-13T09:55:31;9.75;;;3.30;;
39656;SDS011;25337;51.478;7.510;2022-09-13T09:58:11;8.48;;;2.75;;
39656;SDS011;25337;51.478;7.510;2022-09-13T10:00:53;10.07;;;3.58;;
39656;SDS011;25337;51.478;7.510;2022-09-13T10:03:24;10.38;;;3.40;;
39656;SDS011;25337;51.478;7.510;2022-09-13T10:11:11;7.97;;;3.20;;
39656;SDS011;25337;51.478;7.510;2022-09-13T10:13:37;8.98;;;3.45;;
39656;SDS011;25337;51.478;7.510;2022-09-13T10:16:03;10.07;;;4.07;;
39656;SDS011;25337;51.478;7.510;2022-09-13T10:18:34;10.25;;;3.50;;
39656;SDS011;25337;51.478;7.510;2022-09-13T10:21:02;8.43;;;3.33;;
39656;SDS011;25337;51.478;7.510;2022-09-13T10:23:47;7.07;;;2.85;;
39656;SDS011;25337;51.478;7.510;2022-09-13T10:26:18;9.13;;;3.58;;
39656;SDS011;25337;51.478;7.510;2022-09-13T10:28:46;11.30;;;4.00;;
39656;SDS011;25337;51.478;7.510;2022-09-13T10:31:41;9.68;;;3.40;;
39656;SDS011;25337;51.478;7.510;2022-09-13T10:34:13;8.43;;;3.30;;
39656;SDS011;25337;51.478;7.510;2022-09-13T10:39:22;11.65;;;3.47;;
39656;SDS011;25337;51.478;7.510;2022-09-13T10:44:26;9.38;;;3.72;;
39656;SDS011;25337;51.478;7.510;2022-09-13T10:47:22;7.97;;;3.30;;
39656;SDS011;25337;51.478;7.510;2022-09-13T10:49:52;9.23;;;3.15;;
39656;SDS011;25337;51.478;7.510;2022-09-13T10:52:32;10.75;;;4.50;;
39656;SDS011;25337;51.478;7.510;2022-09-13T10:57:44;10.52;;;3.83;;
39656;SDS011;25337;51.478;7.510;2022-09-13T11:00:13;9.82;;;3.78;;
39656;SDS011;25337;51.478;7.510;2022-09-13T11:10:58;9.30;;;3.85;;
39656;SDS011;25337;51.478;7.510;2022-09-13T11:27:01;7.32;;;2.80;;
39656;SDS011;25337;51.478;7.510;2022-09-13T11:32:25;14.10;;;3.10;;
39656;SDS011;25337;51.478;7.510;2022-09-13T11:41:28;8.65;;;3.22;;
39656;SDS011;25337;51.478;7.510;2022-09-13T11:57:57;10.63;;;3.78;;
39656;SDS011;25337;51.478;7.510;2022-09-13T12:06:12;8.80;;;3.00;;
39656;SDS011;25337;51.478;7.510;2022-09-13T12:08:41;11.77;;;3.83;;
39656;SDS011;25337;51.478;7.510;2022-09-13T12:11:15;8.25;;;3.17;;
39656;SDS011;25337;51.478;7.510;2022-09-13T12:13:56;10.65;;;3.15;;
39656;SDS011;25337;51.478;7.510;2022-09-13T12:18:57;10.02;;;3.10;;
39656;SDS011;25337;51.478;7.510;2022-09-13T12:21:35;7.38;;;3.08;;
39656;SDS011;25337;51.478;7.510;2022-09-13T12:24:20;9.07;;;3.35;;
39656;SDS011;25337;51.478;7.510;2022-09-13T12:29:31;7.63;;;3.45;;
39656;SDS011;25337;51.478;7.510;2022-09-13T12:32:10;11.85;;;4.05;;
39656;SDS011;25337;51.478;7.510;2022-09-13T12:46:36;10.20;;;4.00;;
39656;SDS011;25337;51.478;7.510;2022-09-13T12:52:02;8.52;;;4.00;;
39656;SDS011;25337;51.478;7.510;2022-09-13T12:57:43;9.52;;;3.97;;
39656;SDS011;25337;51.478;7.510;2022-09-13T13:00:19;11.10;;;4.05;;
39656;SDS011;25337;51.478;7.510;2022-09-13T13:05:28;13.18;;;4.70;;
39656;SDS011;25337;51.478;7.510;2022-09-13T13:08:01;9.38;;;4.43;;
39656;SDS011;25337;51.478;7.510;2022-09-13T13:10:29;11.07;;;4.30;;
39656;SDS011;25337;51.478;7.510;2022-09-13T13:13:10;9.48;;;4.43;;
39656;SDS011;25337;51.478;7.510;2022-09-13T13:36:48;9.48;;;5.25;;
39656;SDS011;25337;51.478;7.510;2022-09-13T13:46:51;13.85;;;6.07;;
39656;SDS011;25337;51.478;7.510;2022-09-13T13:55:03;13.98;;;6.70;;
39656;SDS011;25337;51.478;7.510;2022-09-13T13:57:58;11.73;;;6.07;;
39656;SDS011;25337;51.478;7.510;2022-09-13T14:00:28;12.35;;;5.50;;
39656;SDS011;25337;51.478;7.510;2022-09-13T14:16:04;9.80;;;5.50;;
39656;SDS011;25337;51.478;7.510;2022-09-13T14:21:26;9.85;;;4.75;;
39656;SDS011;25337;51.478;7.510;2022-09-13T14:26:52;10.25;;;5.90;;
39656;SDS011;25337;51.478;7.510;2022-09-13T14:29:22;10.13;;;5.93;;
39656;SDS011;25337;51.478;7.510;2022-09-13T14:34:28;8.00;;;4.60;;
39656;SDS011;25337;51.478;7.510;2022-09-13T14:36:59;12.15;;;5.93;;
39656;SDS011;25337;51.478;7.510;2022-09-13T14:39:27;11.30;;;5.60;;
39656;SDS011;25337;51.478;7.510;2022-09-13T14:41:56;13.48;;;7.30;;
39656;SDS011;25337;51.478;7.510;2022-09-13T14:44:37;14.45;;;6.20;;
39656;SDS011;25337;51.478;7.510;2022-09-13T14:47:13;12.65;;;5.95;;
39656;SDS011;25337;51.478;7.510;2022-09-13T14:49:55;12.95;;;5.90;;
39656;SDS011;25337;51.478;7.510;2022-09-13T14:52:37;12.18;;;6.45;;
39656;SDS011;25337;51.478;7.510;2022-09-13T14:55:13;14.48;;;6.72;;
39656;SDS011;25337;51.478;7.510;2022-09-13T14:57:45;15.27;;;6.45;;
39656;SDS011;25337;51.478;7.510;2022-09-13T15:02:48;11.95;;;5.82;;
39656;SDS011;25337;51.478;7.510;2022-09-13T15:05:20;13.20;;;7.05;;
39656;SDS011;25337;51.478;7.510;2022-09-13T15:07:48;12.55;;;7.47;;
39656;SDS011;25337;51.478;7.510;2022-09-13T15:17:59;17.40;;;7.75;;
39656;SDS011;25337;51.478;7.510;2022-09-13T15:31:09;11.35;;;6.32;;
39656;SDS011;25337;51.478;7.510;2022-09-13T15:33:43;13.57;;;7.20;;
39656;SDS011;25337;51.478;7.510;2022-09-13T15:41:49;11.95;;;6.53;;
39656;SDS011;25337;51.478;7.510;2022-09-13T15:44:20;16.98;;;6.70;;
39656;SDS011;25337;51.478;7.510;2022-09-13T15:46:47;12.30;;;6.60;;
39656;SDS011;25337;51.478;7.510;2022-09-13T15:49:19;10.65;;;6.57;;
39656;SDS011;25337;51.478;7.510;2022-09-13T15:51:46;12.40;;;7.65;;
39656;SDS011;25337;51.478;7.510;2022-09-13T15:54:17;14.02;;;6.50;;
39656;SDS011;25337;51.478;7.510;2022-09-13T15:56:44;15.02;;;8.13;;
39656;SDS011;25337;51.478;7.510;2022-09-13T15:59:14;15.70;;;8.18;;
39656;SDS011;25337;51.478;7.510;2022-09-13T16:01:41;17.85;;;8.48;;
39656;SDS011;25337;51.478;7.510;2022-09-13T16:04:08;14.05;;;7.63;;
39656;SDS011;25337;51.478;7.510;2022-09-13T16:06:34;14.77;;;7.63;;
39656;SDS011;25337;51.478;7.510;2022-09-13T16:09:00;11.75;;;6.30;;
39656;SDS011;25337;51.478;7.510;2022-09-13T16:11:26;14.52;;;7.32;;
39656;SDS011;25337;51.478;7.510;2022-09-13T16:13:52;15.75;;;7.03;;
39656;SDS011;25337;51.478;7.510;2022-09-13T16:16:18;14.55;;;8.45;;
39656;SDS011;25337;51.478;7.510;2022-09-13T16:18:43;12.57;;;6.53;;
39656;SDS011;25337;51.478;7.510;2022-09-13T16:21:09;13.57;;;7.13;;
39656;SDS011;25337;51.478;7.510;2022-09-13T16:23:35;13.25;;;6.75;;
39656;SDS011;25337;51.478;7.510;2022-09-13T16:26:01;11.40;;;6.60;;
39656;SDS011;25337;51.478;7.510;2022-09-13T16:28:28;11.98;;;6.75;;
39656;SDS011;25337;51.478;7.510;2022-09-13T16:30:54;14.23;;;6.70;;
39656;SDS011;25337;51.478;7.510;2022-09-13T16:33:20;12.18;;;6.80;;
39656;SDS011;25337;51.478;7.510;2022-09-13T16:35:46;13.30;;;7.55;;
39656;SDS011;25337;51.478;7.510;2022-09-13T16:38:11;13.20;;;6.85;;
39656;SDS011;25337;51.478;7.510;2022-09-13T16:40:38;12.98;;;6.85;;
39656;SDS011;25337;51.478;7.510;2022-09-13T16:43:05;11.35;;;6.60;;
39656;SDS011;25337;51.478;7.510;2022-09-13T16:45:31;13.25;;;7.15;;
39656;SDS011;25337;51.478;7.510;2022-09-13T16:47:57;12.25;;;7.55;;
39656;SDS011;25337;51.478;7.510;2022-09-13T16:50:22;11.93;;;7.60;;
39656;SDS011;25337;51.478;7.510;2022-09-13T16:52:48;13.05;;;7.20;;
39656;SDS011;25337;51.478;7.510;2022-09-13T16:55:13;11.35;;;6.93;;
39656;SDS011;25337;51.478;7.510;2022-09-13T16:57:40;12.85;;;6.97;;
39656;SDS011;25337;51.478;7.510;2022-09-13T17:00:06;15.02;;;6.07;;
39656;SDS011;25337;51.478;7.510;2022-09-13T17:02:35;13.32;;;7.20;;
39656;SDS011;25337;51.478;7.510;2022-09-13T17:05:01;13.00;;;7.68;;
39656;SDS011;25337;51.478;7.510;2022-09-13T17:07:26;15.10;;;6.50;;
39656;SDS011;25337;51.478;7.510;2022-09-13T17:09:52;12.98;;;6.97;;
39656;SDS011;25337;51.478;7.510;2022-09-13T17:12:18;13.23;;;6.22;;
39656;SDS011;25337;51.478;7.510;2022-09-13T17:14:44;13.10;;;6.55;;
39656;SDS011;25337;51.478;7.510;2022-09-13T17:17:11;14.02;;;6.65;;
39656;SDS011;25337;51.478;7.510;2022-09-13T17:19:39;12.45;;;6.05;;
39656;SDS011;25337;51.478;7.510;2022-09-13T17:22:04;12.82;;;7.10;;
39656;SDS011;25337;51.478;7.510;2022-09-13T17:24:32;12.95;;;6.38;;
39656;SDS011;25337;51.478;7.510;2022-09-13T17:26:58;12.45;;;5.22;;
39656;SDS011;25337;51.478;7.510;2022-09-13T17:29:24;11.27;;;6.30;;
39656;SDS011;25337;51.478;7.510;2022-09-13T17:31:54;13.90;;;6.80;;
39656;SDS011;25337;51.478;7.510;2022-09-13T17:34:20;11.65;;;6.20;;
39656;SDS011;25337;51.478;7.510;2022-09-13T17:36:46;11.88;;;6.15;;
39656;SDS011;25337;51.478;7.510;2022-09-13T17:39:12;11.50;;;5.43;;
39656;SDS011;25337;51.478;7.510;2022-09-13T17:41:38;11.25;;;5.38;;
39656;SDS011;25337;51.478;7.510;2022-09-13T17:44:04;11.05;;;6.32;;
39656;SDS011;25337;51.478;7.510;2022-09-13T17:46:30;11.27;;;5.60;;
39656;SDS011;25337;51.478;7.510;2022-09-13T17:48:57;14.00;;;7.53;;
39656;SDS011;25337;51.478;7.510;2022-09-13T17:51:24;14.25;;;6.75;;
39656;SDS011;25337;51.478;7.510;2022-09-13T17:53:53;10.30;;;6.43;;
39656;SDS011;25337;51.478;7.510;2022-09-13T18:01:43;13.40;;;6.90;;
39656;SDS011;25337;51.478;7.510;2022-09-13T18:04:10;12.25;;;6.32;;
39656;SDS011;25337;51.478;7.510;2022-09-13T18:06:37;13.02;;;7.05;;
39656;SDS011;25337;51.478;7.510;2022-09-13T18:09:07;12.65;;;6.93;;
39656;SDS011;25337;51.478;7.510;2022-09-13T18:11:34;12.38;;;6.63;;
39656;SDS011;25337;51.478;7.510;2022-09-13T18:14:00;11.30;;;6.30;;
39656;SDS011;25337;51.478;7.510;2022-09-13T18:16:27;14.70;;;7.90;;
39656;SDS011;25337;51.478;7.510;2022-09-13T18:18:53;13.30;;;6.30;;
39656;SDS011;25337;51.478;7.510;2022-09-13T18:21:21;11.98;;;6.93;;
39656;SDS011;25337;51.478;7.510;2022-09-13T18:23:49;12.82;;;6.75;;
39656;SDS011;25337;51.478;7.510;2022-09-13T18:26:17;16.02;;;7.07;;
39656;SDS011;25337;51.478;7.510;2022-09-13T18:28:45;12.02;;;6.50;;
39656;SDS011;25337;51.478;7.510;2022-09-13T18:31:12;12.10;;;6.40;;
39656;SDS011;25337;51.478;7.510;2022-09-13T18:33:40;13.98;;;5.90;;
39656;SDS011;25337;51.478;7.510;2022-09-13T18:36:10;11.68;;;6.30;;
39656;SDS011;25337;51.478;7.510;2022-09-13T18:38:38;11.65;;;6.05;;
39656;SDS011;25337;51.478;7.510;2022-09-13T18:41:11;14.00;;;6.88;;
39656;SDS011;25337;51.478;7.510;2022-09-13T18:43:48;11.80;;;6.68;;
39656;SDS011;25337;51.478;7.510;2022-09-13T18:46:16;10.20;;;5.95;;
39656;SDS011;25337;51.478;7.510;2022-09-13T18:48:47;11.63;;;6.27;;
39656;SDS011;25337;51.478;7.510;2022-09-13T18:51:17;13.88;;;6.50;;
39656;SDS011;25337;51.478;7.510;2022-09-13T18:53:45;10.55;;;5.90;;
39656;SDS011;25337;51.478;7.510;2022-09-13T18:56:14;10.10;;;4.80;;
39656;SDS011;25337;51.478;7.510;2022-09-13T18:58:41;9.80;;;5.13;;
39656;SDS011;25337;51.478;7.510;2022-09-13T19:01:09;11.80;;;5.93;;
39656;SDS011;25337;51.478;7.510;2022-09-13T19:03:49;10.57;;;4.65;;
39656;SDS011;25337;51.478;7.510;2022-09-13T19:08:47;8.32;;;4.68;;
39656;SDS011;25337;51.478;7.510;2022-09-13T19:11:15;9.57;;;5.20;;
39656;SDS011;25337;51.478;7.510;2022-09-13T19:13:42;9.90;;;5.15;;
39656;SDS011;25337;51.478;7.510;2022-09-13T19:16:08;10.70;;;5.03;;
39656;SDS011;25337;51.478;7.510;2022-09-13T19:18:37;9.77;;;4.30;;
39656;SDS011;25337;51.478;7.510;2022-09-13T19:21:13;8.98;;;4.07;;
39656;SDS011;25337;51.478;7.510;2022-09-13T19:23:42;8.50;;;4.07;;
39656;SDS011;25337;51.478;7.510;2022-09-13T19:26:16;8.35;;;4.30;;